createdAt,value
2019-06-15T00:00:28.984Z,90.10
2019-06-15T00:02:57.423Z,90.30
2019-06-15T00:05:25.934Z,90.60
2019-06-15T00:07:54.842Z,90.80
2019-06-15T00:10:23.276Z,90.70
2019-06-15T00:12:51.719Z,90.60
2019-06-15T00:15:20.153Z,90.60
2019-06-15T00:17:48.604Z,90.50
2019-06-15T00:20:17.899Z,90.50
2019-06-15T00:22:46.743Z,90.60
2019-06-15T00:25:15.184Z,90.70
2019-06-15T00:27:43.621Z,90.70
2019-06-15T00:30:13.389Z,90.80
2019-06-15T00:32:41.834Z,91.30
2019-06-15T00:35:10.401Z,91.40
2019-06-15T00:37:38.834Z,91.50
2019-06-15T00:40:08.346Z,91.70
2019-06-15T00:42:36.785Z,92.00
2019-06-15T00:45:06.452Z,92.00
2019-06-15T00:47:34.981Z,91.90
2019-06-15T00:50:04.226Z,91.80
2019-06-15T00:52:32.725Z,91.90
2019-06-15T00:55:01.594Z,91.90
2019-06-15T00:57:30.482Z,91.80
2019-06-15T00:59:58.981Z,92.00
2019-06-15T01:02:27.537Z,91.90
2019-06-15T01:04:55.968Z,92.10
2019-06-15T01:07:24.421Z,92.10
2019-06-15T01:09:52.863Z,92.30
2019-06-15T01:12:21.973Z,92.40
2019-06-15T01:14:50.419Z,92.60
2019-06-15T01:17:18.964Z,92.60
2019-06-15T01:19:47.718Z,92.60
2019-06-15T01:22:16.155Z,92.60
2019-06-15T01:24:44.587Z,92.70
2019-06-15T01:27:13.037Z,93.10
2019-06-15T01:29:42.365Z,93.40
2019-06-15T01:32:10.789Z,93.70
2019-06-15T01:34:39.238Z,93.90
2019-06-15T01:37:07.681Z,94.20
2019-06-15T01:39:36.125Z,94.50
2019-06-15T01:42:05.357Z,94.50
2019-06-15T01:44:34.158Z,94.50
2019-06-15T01:47:02.633Z,94.60
2019-06-15T01:49:31.425Z,94.70
2019-06-15T01:51:59.848Z,94.70
2019-06-15T01:54:29.096Z,94.60
2019-06-15T01:56:57.533Z,94.50
2019-06-15T01:59:25.974Z,94.80
2019-06-15T02:01:54.422Z,95.00
2019-06-15T02:04:22.860Z,95.20
2019-06-15T02:06:51.600Z,95.20
2019-06-15T02:09:20.109Z,95.50
2019-06-15T02:11:48.561Z,95.50
2019-06-15T02:14:17.023Z,95.50
2019-06-15T02:16:45.470Z,95.40
2019-06-15T02:19:14.603Z,95.30
2019-06-15T02:21:43.049Z,95.40
2019-06-15T02:24:11.510Z,95.70
2019-06-15T02:26:40.041Z,95.90
2019-06-15T02:29:08.591Z,96.00
2019-06-15T02:31:37.410Z,96.00
2019-06-15T02:34:06.312Z,95.80
2019-06-15T02:36:34.767Z,95.60
2019-06-15T02:39:05.611Z,95.70
2019-06-15T02:41:34.117Z,96.10
2019-06-15T02:44:02.568Z,96.40
2019-06-15T02:46:31.004Z,96.60
2019-06-15T02:48:59.450Z,97.00
2019-06-15T02:51:28.215Z,97.20
2019-06-15T02:53:56.648Z,97.30
2019-06-15T02:56:25.495Z,97.70
2019-06-15T02:58:53.921Z,97.80
2019-06-15T03:01:22.371Z,96.60
2019-06-15T03:03:50.853Z,95.70
2019-06-15T03:06:19.718Z,94.80
2019-06-15T03:08:48.539Z,94.60
2019-06-15T03:11:16.975Z,94.40
2019-06-15T03:13:45.524Z,94.30
2019-06-15T03:16:14.034Z,94.30
2019-06-15T03:18:42.474Z,94.40
2019-06-15T03:21:10.918Z,94.30
2019-06-15T03:23:39.354Z,94.50
2019-06-15T03:26:07.793Z,94.20
2019-06-15T03:28:36.272Z,94.20
2019-06-15T03:31:04.734Z,94.10
2019-06-15T03:33:33.195Z,94.00
2019-06-15T03:36:01.648Z,93.70
2019-06-15T03:38:30.076Z,93.60
2019-06-15T03:40:58.530Z,93.10
2019-06-15T03:43:26.995Z,93.10
2019-06-15T03:45:55.526Z,92.70
2019-06-15T03:48:23.951Z,92.20
2019-06-15T03:50:52.393Z,92.10
2019-06-15T03:53:20.861Z,91.80
2019-06-15T03:55:49.302Z,91.70
2019-06-15T03:58:17.725Z,91.80
2019-06-15T04:00:48.218Z,91.30
2019-06-15T04:03:16.832Z,91.40
2019-06-15T04:05:46.213Z,91.20
2019-06-15T04:08:14.793Z,91.00
2019-06-15T04:10:43.228Z,90.90
2019-06-15T04:13:11.694Z,90.80
2019-06-15T04:15:40.135Z,90.70
2019-06-15T04:18:08.557Z,90.70
2019-06-15T04:20:37.012Z,91.00
2019-06-15T04:23:05.875Z,90.90
2019-06-15T04:25:34.478Z,90.90
2019-06-15T04:28:02.902Z,90.90
2019-06-15T04:30:31.359Z,90.60
2019-06-15T04:32:59.793Z,90.50
2019-06-15T04:35:28.225Z,90.50
2019-06-15T04:37:57.065Z,90.40
2019-06-15T04:40:25.547Z,90.50
2019-06-15T04:42:53.973Z,90.30
2019-06-15T04:45:22.428Z,90.20
2019-06-15T04:47:50.862Z,90.20
2019-06-15T04:50:19.356Z,90.00
2019-06-15T04:52:47.780Z,89.90
2019-06-15T04:55:16.244Z,89.80
2019-06-15T04:57:44.747Z,89.90
2019-06-15T05:00:13.378Z,90.10
2019-06-15T05:02:41.789Z,89.90
2019-06-15T05:05:11.362Z,89.30
2019-06-15T05:07:39.786Z,89.50
2019-06-15T05:10:08.383Z,89.30
2019-06-15T05:12:36.831Z,89.30
2019-06-15T05:15:07.534Z,89.30
2019-06-15T05:17:35.990Z,89.40
2019-06-15T05:20:07.546Z,89.30
2019-06-15T05:22:35.989Z,89.10
2019-06-15T05:25:06.669Z,89.30
2019-06-15T05:27:35.201Z,88.90
2019-06-15T05:30:07.940Z,88.70
2019-06-15T05:32:36.390Z,88.00
2019-06-15T05:35:08.134Z,88.20
2019-06-15T05:37:36.561Z,88.60
2019-06-15T05:40:06.151Z,87.90
2019-06-15T05:42:34.605Z,87.70
2019-06-15T05:45:03.922Z,88.10
2019-06-15T05:47:32.354Z,87.90
2019-06-15T05:50:00.776Z,88.30
2019-06-15T05:52:29.205Z,88.40
2019-06-15T05:54:57.645Z,88.20
2019-06-15T05:57:26.062Z,88.50
2019-06-15T05:59:54.802Z,88.60
2019-06-15T06:02:24.878Z,88.80
2019-06-15T06:04:53.738Z,88.20
2019-06-15T06:07:22.244Z,87.70
2019-06-15T06:09:50.666Z,87.90
2019-06-15T06:12:19.452Z,87.00
2019-06-15T06:14:49.911Z,87.00
2019-06-15T06:17:18.365Z,85.80
2019-06-15T06:19:46.846Z,85.90
2019-06-15T06:22:15.300Z,86.60
2019-06-15T06:24:43.741Z,85.90
2019-06-15T06:27:12.183Z,85.20
2019-06-15T06:29:40.625Z,85.20
2019-06-15T06:32:09.052Z,85.90
2019-06-15T06:34:37.488Z,85.50
2019-06-15T06:37:05.932Z,85.90
2019-06-15T06:39:34.429Z,86.60
2019-06-15T06:42:02.877Z,87.10
2019-06-15T06:44:31.317Z,86.20
2019-06-15T06:46:59.770Z,86.70
2019-06-15T06:49:28.233Z,86.40
2019-06-15T06:51:57.098Z,86.80
2019-06-15T06:54:25.525Z,87.30
2019-06-15T06:56:54.344Z,86.60
2019-06-15T06:59:22.781Z,87.40
2019-06-15T07:01:51.227Z,87.20
2019-06-15T07:04:19.648Z,87.30
2019-06-15T07:06:48.361Z,87.40
2019-06-15T07:09:17.163Z,87.20
2019-06-15T07:11:45.608Z,87.60
2019-06-15T07:14:14.045Z,85.50
2019-06-15T07:16:42.568Z,84.60
2019-06-15T07:19:11.176Z,83.60
2019-06-15T07:21:39.842Z,83.70
2019-06-15T07:24:11.209Z,82.00
2019-06-15T07:26:39.669Z,82.90
2019-06-15T07:29:08.488Z,82.60
2019-06-15T07:31:36.907Z,83.60
2019-06-15T07:34:05.354Z,84.10
2019-06-15T07:36:33.777Z,83.00
2019-06-15T07:39:02.235Z,82.80
2019-06-15T07:41:30.673Z,82.40
2019-06-15T07:43:59.113Z,81.90
2019-06-15T07:46:27.822Z,83.50
2019-06-15T07:48:56.266Z,81.20
2019-06-15T07:51:24.705Z,81.70
2019-06-15T07:53:53.145Z,82.50
2019-06-15T07:56:21.582Z,82.90
2019-06-15T07:58:50.041Z,83.40
2019-06-15T08:01:18.698Z,84.20
2019-06-15T08:03:47.507Z,82.40
2019-06-15T08:06:15.955Z,80.60
2019-06-15T08:08:44.389Z,78.20
2019-06-15T08:11:12.832Z,77.20
2019-06-15T08:13:41.283Z,75.90
2019-06-15T08:16:09.770Z,78.00
2019-06-15T08:18:38.353Z,78.80
2019-06-15T08:21:06.822Z,79.40
2019-06-15T08:23:35.250Z,79.30
2019-06-15T08:26:03.695Z,80.90
2019-06-15T08:28:40.348Z,82.80
2019-06-15T08:31:02.375Z,82.10
2019-06-15T08:33:30.957Z,82.80
2019-06-15T08:36:02.213Z,82.30
2019-06-15T08:38:29.590Z,79.80
2019-06-15T08:40:58.062Z,77.90
2019-06-15T08:43:26.513Z,76.50
2019-06-15T08:45:54.946Z,78.20
2019-06-15T08:48:23.384Z,79.30
2019-06-15T08:50:51.821Z,80.70
2019-06-15T08:53:20.265Z,82.00
2019-06-15T08:55:48.693Z,82.30
2019-06-15T08:58:17.145Z,82.00
2019-06-15T09:00:45.919Z,82.30
2019-06-15T09:03:14.356Z,82.00
2019-06-15T09:05:42.785Z,82.40
2019-06-15T09:08:11.298Z,84.00
2019-06-15T09:10:39.769Z,83.10
2019-06-15T09:13:08.205Z,83.70
2019-06-15T09:15:39.735Z,82.80
2019-06-15T09:18:08.175Z,84.10
2019-06-15T09:20:36.626Z,81.50
2019-06-15T09:23:05.067Z,82.10
2019-06-15T09:25:36.679Z,82.10
2019-06-15T09:28:03.680Z,81.30
2019-06-15T09:30:32.257Z,80.60
2019-06-15T09:33:00.687Z,80.00
2019-06-15T09:35:29.174Z,79.50
2019-06-15T09:37:57.697Z,80.20
2019-06-15T09:40:26.290Z,80.00
2019-06-15T09:42:54.727Z,80.30
2019-06-15T09:45:23.242Z,79.60
2019-06-15T09:47:51.672Z,80.30
2019-06-15T09:50:20.468Z,80.70
2019-06-15T09:52:48.894Z,81.40
2019-06-15T09:55:17.414Z,81.10
2019-06-15T09:57:45.864Z,81.70
2019-06-15T10:00:15.396Z,81.00
2019-06-15T10:02:43.825Z,82.30
2019-06-15T10:05:12.836Z,81.00
2019-06-15T10:07:41.625Z,80.60
2019-06-15T10:10:10.781Z,81.20
2019-06-15T10:12:39.281Z,80.60
2019-06-15T10:15:09.641Z,79.20
2019-06-15T10:17:38.455Z,78.70
2019-06-15T10:20:07.630Z,79.70
2019-06-15T10:22:36.147Z,79.20
2019-06-15T10:25:06.254Z,76.40
2019-06-15T10:27:34.925Z,77.20
2019-06-15T10:30:05.318Z,75.60
2019-06-15T10:32:33.762Z,75.60
2019-06-15T10:35:02.287Z,73.20
2019-06-15T10:37:30.774Z,73.70
2019-06-15T10:39:59.248Z,72.50
2019-06-15T10:42:27.675Z,72.00
2019-06-15T10:44:56.097Z,71.70
2019-06-15T10:47:24.524Z,72.30
2019-06-15T10:49:53.289Z,72.30
2019-06-15T10:52:21.778Z,73.50
2019-06-15T10:54:50.221Z,74.10
2019-06-15T10:57:18.697Z,73.50
2019-06-15T10:59:56.900Z,74.60
2019-06-15T11:02:17.312Z,71.00
2019-06-15T11:04:45.757Z,71.60
2019-06-15T11:07:14.196Z,71.70
2019-06-15T11:09:42.641Z,71.50
2019-06-15T11:12:11.098Z,72.40
2019-06-15T11:14:39.540Z,74.00
2019-06-15T11:17:07.986Z,73.50
2019-06-15T11:19:36.430Z,74.80
2019-06-15T11:22:04.848Z,74.20
2019-06-15T11:24:33.269Z,74.40
2019-06-15T11:27:01.711Z,75.10
2019-06-15T11:29:30.158Z,75.10
2019-06-15T11:31:58.928Z,74.80
2019-06-15T11:34:27.357Z,73.10
2019-06-15T11:36:56.314Z,73.90
2019-06-15T11:39:24.739Z,73.00
2019-06-15T11:41:53.262Z,72.40
2019-06-15T11:44:21.728Z,75.40
2019-06-15T11:46:50.551Z,75.40
2019-06-15T11:49:19.316Z,76.40
2019-06-15T11:51:47.737Z,77.30
2019-06-15T11:54:16.169Z,77.70
2019-06-15T11:56:44.722Z,78.30
2019-06-15T11:59:13.161Z,78.10
2019-06-15T12:01:41.607Z,78.50
2019-06-15T12:04:10.053Z,77.20
2019-06-15T12:06:38.513Z,76.70
2019-06-15T12:09:08.085Z,75.90
2019-06-15T12:11:36.569Z,74.40
2019-06-15T12:14:05.064Z,75.10
2019-06-15T12:16:33.509Z,74.50
2019-06-15T12:19:01.955Z,75.90
2019-06-15T12:21:30.695Z,73.20
2019-06-15T12:23:59.166Z,72.00
2019-06-15T12:26:27.954Z,73.40
2019-06-15T12:28:56.389Z,73.40
2019-06-15T12:31:24.847Z,73.40
2019-06-15T12:33:53.278Z,72.50
2019-06-15T12:36:22.487Z,72.30
2019-06-15T12:38:50.947Z,72.30
2019-06-15T12:41:19.475Z,72.20
2019-06-15T12:43:47.919Z,70.90
2019-06-15T12:46:16.387Z,72.30
2019-06-15T12:48:44.839Z,71.90
2019-06-15T12:51:13.413Z,67.20
2019-06-15T12:53:41.866Z,66.80
2019-06-15T12:56:10.730Z,66.40
2019-06-15T12:58:39.261Z,66.00
2019-06-15T13:01:07.699Z,68.30
2019-06-15T13:03:36.142Z,70.20
2019-06-15T13:06:04.966Z,71.50
2019-06-15T13:08:33.432Z,71.60
2019-06-15T13:11:02.223Z,72.20
2019-06-15T13:13:30.712Z,73.50
2019-06-15T13:15:59.181Z,72.00
2019-06-15T13:18:27.630Z,71.00
2019-06-15T13:20:56.061Z,72.00
2019-06-15T13:23:24.501Z,70.10
2019-06-15T13:25:52.922Z,70.20
2019-06-15T13:28:21.377Z,69.40
2019-06-15T13:30:49.830Z,69.10
2019-06-15T13:33:18.298Z,71.00
2019-06-15T13:35:46.744Z,70.70
2019-06-15T13:38:15.185Z,68.80
2019-06-15T13:40:43.627Z,70.80
2019-06-15T13:43:12.098Z,68.90
2019-06-15T13:45:40.595Z,66.70
2019-06-15T13:48:11.631Z,68.70
2019-06-15T13:50:39.551Z,66.50
2019-06-15T13:53:08.060Z,68.30
2019-06-15T13:55:36.481Z,68.50
2019-06-15T13:58:04.914Z,68.60
2019-06-15T14:00:33.385Z,66.80
2019-06-15T14:03:01.826Z,68.70
2019-06-15T14:05:30.262Z,66.80
2019-06-15T14:07:58.722Z,68.80
2019-06-15T14:10:27.200Z,65.00
2019-06-15T14:12:55.656Z,66.30
2019-06-15T14:15:24.123Z,66.50
2019-06-15T14:17:52.544Z,66.80
2019-06-15T14:20:21.396Z,67.90
2019-06-15T14:22:49.840Z,66.80
2019-06-15T14:25:18.348Z,68.50
2019-06-15T14:27:46.806Z,66.90
2019-06-15T14:30:16.649Z,64.90
2019-06-15T14:32:45.203Z,66.80
2019-06-15T14:35:14.111Z,65.90
2019-06-15T14:37:42.918Z,65.40
2019-06-15T14:40:11.988Z,66.20
2019-06-15T14:42:40.713Z,66.50
2019-06-15T14:45:11.202Z,65.30
2019-06-15T14:47:39.650Z,63.90
2019-06-15T14:50:08.613Z,64.30
2019-06-15T14:52:37.061Z,64.80
2019-06-15T14:55:07.222Z,64.00
2019-06-15T14:57:36.367Z,64.90
2019-06-15T15:00:08.805Z,64.60
2019-06-15T15:02:37.340Z,65.70
2019-06-15T15:05:07.982Z,62.70
2019-06-15T15:07:36.922Z,63.80
2019-06-15T15:10:07.913Z,64.60
2019-06-15T15:12:36.945Z,64.60
2019-06-15T15:15:09.306Z,65.30
2019-06-15T15:17:37.730Z,65.50
2019-06-15T15:20:07.430Z,66.70
2019-06-15T15:22:37.161Z,66.20
2019-06-15T15:25:07.668Z,66.50
2019-06-15T15:27:37.388Z,66.20
2019-06-15T15:30:09.033Z,66.50
2019-06-15T15:32:37.797Z,66.50
2019-06-15T15:35:07.486Z,68.10
2019-06-15T15:37:37.155Z,68.40
2019-06-15T15:40:07.450Z,66.70
2019-06-15T15:42:37.160Z,66.90
2019-06-15T15:45:07.459Z,65.80
2019-06-15T15:47:36.442Z,67.60
2019-06-15T15:50:08.278Z,63.80
2019-06-15T15:52:37.479Z,67.40
2019-06-15T15:55:30.898Z,64.10
2019-06-15T15:57:59.695Z,63.40
2019-06-15T16:00:36.972Z,63.10
2019-06-15T16:03:06.990Z,64.50
2019-06-15T16:05:37.139Z,64.40
2019-06-15T16:08:06.630Z,63.80
2019-06-15T16:10:37.472Z,66.70
2019-06-15T16:13:06.479Z,67.00
2019-06-15T16:15:37.243Z,65.10
2019-06-15T16:18:06.791Z,63.60
2019-06-15T16:20:37.046Z,63.40
2019-06-15T16:23:07.554Z,64.10
2019-06-15T16:25:37.174Z,63.50
2019-06-15T16:28:07.039Z,62.50
2019-06-15T16:30:59.551Z,62.90
2019-06-15T16:33:07.778Z,62.20
2019-06-15T16:35:36.467Z,63.60
2019-06-15T16:38:06.845Z,63.70
2019-06-15T16:40:39.904Z,63.90
2019-06-15T16:43:08.950Z,63.50
2019-06-15T16:45:37.869Z,64.80
2019-06-15T16:48:06.568Z,63.80
2019-06-15T16:50:36.804Z,63.70
2019-06-15T16:53:05.760Z,62.80
2019-06-15T16:55:36.566Z,60.10
2019-06-15T16:58:07.110Z,61.00
2019-06-15T17:00:36.440Z,60.70
2019-06-15T17:03:19.864Z,59.90
2019-06-15T17:05:36.257Z,61.10
2019-06-15T17:08:07.011Z,62.90
2019-06-15T17:10:40.580Z,61.40
2019-06-15T17:13:09.878Z,63.00
2019-06-15T17:15:39.210Z,64.40
2019-06-15T17:18:07.980Z,64.80
2019-06-15T17:20:46.602Z,65.50
2019-06-15T17:23:16.396Z,66.00
2019-06-15T17:25:45.268Z,66.50
2019-06-15T17:28:14.186Z,67.60
2019-06-15T17:30:43.686Z,67.80
2019-06-15T17:33:12.551Z,66.80
2019-06-15T17:35:55.094Z,64.80
2019-06-15T17:38:11.481Z,63.40
2019-06-15T17:40:39.915Z,63.00
2019-06-15T17:43:08.364Z,62.10
2019-06-15T17:45:37.648Z,64.10
2019-06-15T17:48:06.635Z,63.10
2019-06-15T17:50:40.847Z,62.60
2019-06-15T17:53:09.290Z,61.40
2019-06-15T17:55:37.906Z,62.30
2019-06-15T17:58:06.907Z,63.40
2019-06-15T18:00:41.246Z,64.50
2019-06-15T18:03:09.723Z,64.30
2019-06-15T18:05:38.253Z,65.90
2019-06-15T18:08:06.850Z,64.20
2019-06-15T18:10:36.266Z,64.40
2019-06-15T18:13:07.072Z,64.90
2019-06-15T18:15:36.347Z,66.40
2019-06-15T18:18:07.131Z,67.70
2019-06-15T18:20:36.412Z,68.30
2019-06-15T18:23:06.064Z,68.70
2019-06-15T18:25:37.071Z,68.60
2019-06-15T18:28:06.400Z,68.30
2019-06-15T18:30:37.111Z,68.60
2019-06-15T18:33:07.047Z,69.50
2019-06-15T18:35:36.110Z,69.60
2019-06-15T18:38:07.185Z,70.50
2019-06-15T18:40:37.187Z,70.20
2019-06-15T18:43:07.298Z,71.00
2019-06-15T18:45:36.132Z,72.20
2019-06-15T18:48:06.278Z,72.90
2019-06-15T18:50:37.660Z,73.20
2019-06-15T18:53:07.274Z,73.70
2019-06-15T18:55:36.755Z,74.00
2019-06-15T18:58:05.793Z,74.20
2019-06-15T19:00:36.852Z,74.60
2019-06-15T19:03:06.870Z,74.60
2019-06-15T19:05:37.402Z,75.20
2019-06-15T19:08:06.792Z,75.00
2019-06-15T19:10:37.402Z,75.10
2019-06-15T19:13:07.366Z,74.90
2019-06-15T19:15:37.295Z,74.60
2019-06-15T19:18:07.466Z,74.10
2019-06-15T19:20:37.233Z,73.90
2019-06-15T19:23:07.200Z,73.80
2019-06-15T19:25:36.557Z,74.10
2019-06-15T19:28:06.025Z,74.20
2019-06-15T19:30:37.125Z,74.00
2019-06-15T19:33:05.098Z,75.50
2019-06-15T19:35:36.338Z,76.30
2019-06-15T19:38:06.279Z,76.60
2019-06-15T19:40:37.607Z,77.40
2019-06-15T19:43:06.616Z,78.30
2019-06-15T19:45:37.025Z,78.80
2019-06-15T19:48:06.650Z,79.60
2019-06-15T19:50:36.538Z,79.80
2019-06-15T19:53:07.155Z,79.60
2019-06-15T19:55:36.171Z,80.00
2019-06-15T19:58:07.278Z,80.50
2019-06-15T20:00:36.417Z,80.20
2019-06-15T20:03:07.033Z,80.50
2019-06-15T20:05:36.989Z,80.30
2019-06-15T20:08:06.996Z,79.70
2019-06-15T20:10:37.006Z,80.00
2019-06-15T20:13:07.143Z,79.80
2019-06-15T20:15:37.715Z,79.40
2019-06-15T20:18:07.012Z,79.80
2019-06-15T20:20:36.906Z,80.30
2019-06-15T20:23:07.263Z,80.90
2019-06-15T20:25:36.877Z,81.30
2019-06-15T20:28:07.130Z,81.70
2019-06-15T20:30:36.990Z,82.10
2019-06-15T20:33:07.877Z,82.50
2019-06-15T20:35:36.161Z,83.20
2019-06-15T20:38:04.886Z,83.50
2019-06-15T20:40:33.458Z,83.70
2019-06-15T20:43:01.987Z,83.80
2019-06-15T20:45:31.638Z,83.80
2019-06-15T20:48:00.229Z,83.80
2019-06-15T20:50:28.740Z,83.80
2019-06-15T20:52:57.669Z,83.90
2019-06-15T20:55:26.619Z,84.00
2019-06-15T20:57:56.845Z,84.10
2019-06-15T21:00:26.257Z,84.20
2019-06-15T21:02:56.168Z,84.10
2019-06-15T21:05:36.898Z,84.30
2019-06-15T21:07:57.364Z,84.40
2019-06-15T21:10:26.375Z,84.50
2019-06-15T21:12:54.998Z,84.80
2019-06-15T21:15:26.498Z,84.80
2019-06-15T21:17:59.051Z,85.00
2019-06-15T21:20:27.493Z,85.30
2019-06-15T21:22:57.245Z,85.50
2019-06-15T21:25:26.439Z,85.50
2019-06-15T21:27:56.724Z,85.50
2019-06-15T21:30:27.105Z,85.40
2019-06-15T21:32:56.135Z,84.50
2019-06-15T21:35:26.795Z,84.30
2019-06-15T21:37:57.141Z,84.40
2019-06-15T21:40:27.326Z,84.50
2019-06-15T21:42:56.748Z,84.40
2019-06-15T21:45:25.221Z,84.50
2019-06-15T21:47:56.076Z,84.50
2019-06-15T21:50:26.676Z,84.30
2019-06-15T21:52:56.414Z,84.20
2019-06-15T21:55:26.735Z,84.00
2019-06-15T21:57:56.374Z,84.50
2019-06-15T22:00:32.100Z,85.00
2019-06-15T22:03:01.495Z,85.20
2019-06-15T22:05:30.081Z,85.10
2019-06-15T22:07:58.598Z,85.90
2019-06-15T22:10:27.039Z,86.60
2019-06-15T22:12:57.214Z,86.00
2019-06-15T22:15:26.527Z,86.20
2019-06-15T22:17:55.420Z,86.50
2019-06-15T22:20:26.279Z,85.90
2019-06-15T22:22:54.448Z,86.50
2019-06-15T22:25:22.879Z,86.90
2019-06-15T22:27:51.604Z,87.60
2019-06-15T22:30:20.594Z,88.10
2019-06-15T22:32:49.017Z,87.90
2019-06-15T22:35:17.638Z,89.40
2019-06-15T22:37:46.761Z,89.80
2019-06-15T22:40:16.602Z,89.70
2019-06-15T22:42:47.003Z,90.50
2019-06-15T22:45:17.329Z,91.10
2019-06-15T22:47:46.766Z,91.00
2019-06-15T22:50:16.115Z,91.50
2019-06-15T22:52:47.168Z,92.50
2019-06-15T22:55:16.541Z,92.90
2019-06-15T22:57:46.119Z,93.80
2019-06-15T23:00:17.114Z,94.30
2019-06-15T23:02:46.177Z,94.80
2019-06-15T23:05:17.144Z,95.00
2019-06-15T23:07:47.185Z,95.20
2019-06-15T23:10:16.770Z,95.20
2019-06-15T23:12:46.410Z,95.30
2019-06-15T23:15:17.446Z,95.50
2019-06-15T23:17:46.629Z,95.50
2019-06-15T23:20:17.242Z,95.50
2019-06-15T23:22:46.795Z,95.50
2019-06-15T23:25:16.788Z,95.70
2019-06-15T23:27:46.924Z,95.70
2019-06-15T23:30:16.227Z,95.70
2019-06-15T23:32:46.918Z,95.70
2019-06-15T23:35:16.849Z,95.60
2019-06-15T23:37:46.494Z,95.60
2019-06-15T23:40:22.588Z,95.50
2019-06-15T23:42:51.363Z,95.40
2019-06-15T23:45:20.924Z,95.40
2019-06-15T23:47:50.006Z,95.40
2019-06-15T23:50:19.773Z,95.40
2019-06-15T23:52:48.766Z,95.40
2019-06-15T23:55:18.147Z,95.40
2019-06-15T23:57:46.749Z,95.60
